TimeEST,TemperatureF,Dew PointF,Humidity,Sea Level PressureIn,VisibilityMPH,Wind Direction,Wind SpeedMPH,Gust SpeedMPH,PrecipitationIn,Events,Conditions,WindDirDegrees,DateUTC
12:16 AM,29.1,24.3,82,29.83,10.0,NE,10.4,17.3,N/A,,Clear,40,2013-02-27 05:16:00
12:36 AM,29.3,24.4,82,29.82,10.0,NE,10.4,18.4,N/A,,Clear,50,2013-02-27 05:36:00
12:56 AM,29.7,24.4,81,29.81,10.0,NE,8.1,-,N/A,,Clear,40,2013-02-27 05:56:00
1:16 AM,29.8,24.4,80,29.80,10.0,NE,10.4,19.6,N/A,,Clear,50,2013-02-27 06:16:00
1:36 AM,29.8,24.4,80,29.80,10.0,NE,6.9,17.3,N/A,,Scattered Clouds,40,2013-02-27 06:36:00
1:56 AM,30.0,24.6,80,29.79,10.0,NE,8.1,-,N/A,,Overcast,50,2013-02-27 06:56:00
2:16 AM,30.2,24.6,80,29.78,10.0,NE,5.8,-,N/A,,Overcast,40,2013-02-27 07:16:00
2:36 AM,30.2,24.8,80,29.77,10.0,NE,6.9,18.4,N/A,,Overcast,50,2013-02-27 07:36:00
2:56 AM,30.6,25.2,80,29.76,7.0,NE,10.4,16.1,N/A,Snow,Light Snow,50,2013-02-27 07:56:00
3:16 AM,30.0,26.4,86,29.75,1.8,NE,8.1,-,N/A,Snow,Light Snow,50,2013-02-27 08:16:00
3:36 AM,29.7,26.8,89,29.74,2.0,NE,8.1,16.1,N/A,Snow,Light Snow,50,2013-02-27 08:36:00
3:56 AM,29.3,27.3,92,29.73,2.0,NE,8.1,-,N/A,Snow,Light Snow,40,2013-02-27 08:56:00
4:16 AM,29.3,27.5,93,29.72,2.5,NE,6.9,18.4,N/A,Snow,Light Snow,40,2013-02-27 09:16:00
4:36 AM,29.3,27.5,93,29.72,2.5,NE,8.1,17.3,N/A,Snow,Light Snow,50,2013-02-27 09:36:00
4:56 AM,29.3,27.5,93,29.73,3.0,ENE,8.1,-,N/A,Snow,Light Snow,60,2013-02-27 09:56:00
5:16 AM,29.5,27.5,92,29.72,2.5,NE,10.4,16.1,N/A,Snow,Light Snow,50,2013-02-27 10:16:00
5:37 AM,29.3,27.9,94,29.72,2.5,NE,8.1,19.6,N/A,Snow,Light Snow,50,2013-02-27 10:37:00
5:56 AM,29.3,28.4,96,29.73,1.2,NE,8.1,17.3,N/A,Snow,Light Snow,50,2013-02-27 10:56:00
6:16 AM,29.1,28.4,97,29.73,1.0,NE,8.1,-,N/A,Snow,Light Snow,40,2013-02-27 11:16:00
6:36 AM,29.1,28.4,97,29.72,1.5,NE,8.1,-,N/A,Snow,Light Snow,40,2013-02-27 11:36:00
6:56 AM,29.3,28.8,98,29.72,2.0,NE,9.2,17.3,N/A,Snow,Light Snow,40,2013-02-27 11:56:00
7:16 AM,29.3,28.8,98,29.72,1.2,NE,6.9,17.3,N/A,Snow,Light Snow,40,2013-02-27 12:16:00
7:56 AM,29.7,29.1,98,29.72,1.0,NE,6.9,17.3,N/A,Snow,Light Snow,50,2013-02-27 12:56:00
8:16 AM,30.0,29.3,97,29.73,1.0,NE,9.2,17.3,N/A,Snow,Light Snow,40,2013-02-27 13:16:00
8:36 AM,30.2,29.3,96,29.73,0.8,NE,9.2,16.1,N/A,Snow,Light Snow,40,2013-02-27 13:36:00
8:56 AM,30.2,29.7,98,29.73,1.0,NE,10.4,18.4,N/A,Snow,Light Snow,40,2013-02-27 13:56:00
9:15 AM,30.2,29.7,98,29.72,1.0,NE,9.2,17.3,N/A,Snow,Light Snow,40,2013-02-27 14:15:00
9:36 AM,30.6,29.8,97,29.72,1.0,NE,8.1,17.3,N/A,Snow,Light Snow,40,2013-02-27 14:36:00
9:56 AM,30.7,30.0,97,29.72,0.8,NNE,8.1,-,N/A,Snow,Light Snow,30,2013-02-27 14:56:00
10:16 AM,30.9,30.0,96,29.72,1.2,NE,9.2,16.1,N/A,Snow,Light Snow,40,2013-02-27 15:16:00
10:36 AM,31.5,30.0,94,29.71,2.0,NE,6.9,20.7,N/A,Snow,Light Snow,50,2013-02-27 15:36:00
10:56 AM,31.5,30.2,95,29.71,3.0,NE,8.1,18.4,N/A,Snow,Light Snow,40,2013-02-27 15:56:00
11:16 AM,31.5,30.2,95,29.71,2.5,NE,6.9,17.3,N/A,Snow,Light Snow,40,2013-02-27 16:16:00
11:36 AM,32.0,30.6,94,29.70,3.0,NE,10.4,16.1,N/A,Snow,Light Snow,40,2013-02-27 16:36:00
11:56 AM,32.0,30.6,94,29.70,4.0,NE,8.1,16.1,N/A,Snow,Light Snow,50,2013-02-27 16:56:00
12:16 PM,32.0,30.7,95,29.70,7.0,NE,9.2,16.1,N/A,,Overcast,50,2013-02-27 17:16:00
12:36 PM,32.0,30.9,96,29.70,4.0,NE,9.2,-,N/A,Snow,Light Snow,40,2013-02-27 17:36:00
12:56 PM,32.2,31.1,96,29.70,7.0,NE,6.9,-,N/A,,Overcast,50,2013-02-27 17:56:00
1:16 PM,32.4,31.1,95,29.70,7.0,NE,5.8,16.1,N/A,,Overcast,40,2013-02-27 18:16:00
1:36 PM,32.5,31.1,94,29.69,7.0,NE,5.8,-,N/A,,Overcast,40,2013-02-27 18:36:00
1:57 PM,32.9,30.7,92,29.69,10.0,NE,6.9,18.4,N/A,,Overcast,50,2013-02-27 18:57:00
2:16 PM,33.3,30.4,89,29.69,10.0,NE,6.9,-,N/A,,Overcast,50,2013-02-27 19:16:00
2:36 PM,33.3,30.2,89,29.69,10.0,NE,5.8,-,N/A,,Overcast,40,2013-02-27 19:36:00
2:56 PM,33.3,30.6,90,29.68,7.0,NE,6.9,-,N/A,,Overcast,40,2013-02-27 19:56:00
3:16 PM,33.3,30.6,90,29.68,10.0,NE,9.2,-,N/A,,Overcast,40,2013-02-27 20:16:00
3:36 PM,33.8,30.2,87,29.68,10.0,NE,8.1,-,N/A,,Overcast,40,2013-02-27 20:36:00
3:56 PM,33.4,30.2,88,29.69,10.0,NE,3.5,-,N/A,,Overcast,40,2013-02-27 20:56:00
4:16 PM,33.4,30.6,89,29.69,10.0,NE,4.6,-,N/A,,Overcast,40,2013-02-27 21:16:00
4:36 PM,33.8,30.6,88,29.69,10.0,NE,4.6,-,N/A,,Overcast,40,2013-02-27 21:36:00
4:56 PM,33.8,30.6,88,29.69,10.0,NE,3.5,-,N/A,,Overcast,40,2013-02-27 21:56:00
5:16 PM,33.8,30.7,89,29.68,10.0,NE,5.8,-,N/A,,Overcast,40,2013-02-27 22:16:00
5:37 PM,34.0,30.2,86,29.69,10.0,NE,5.8,-,N/A,,Overcast,40,2013-02-27 22:37:00
5:56 PM,34.0,30.2,86,29.70,10.0,NE,6.9,-,N/A,,Overcast,40,2013-02-27 22:56:00
6:16 PM,33.8,30.6,88,29.70,10.0,NE,6.9,-,N/A,,Overcast,40,2013-02-27 23:16:00
6:36 PM,33.8,30.6,88,29.70,7.0,NNE,4.6,-,N/A,,Overcast,30,2013-02-27 23:36:00
6:56 PM,33.1,30.9,92,29.71,5.0,NNE,3.5,-,N/A,Snow,Light Snow,30,2013-02-27 23:56:00
7:17 PM,33.4,30.2,88,29.71,10.0,NE,5.8,-,N/A,,Overcast,40,2013-02-28 00:17:00
7:36 PM,33.4,29.8,87,29.72,10.0,NE,6.9,-,N/A,,Overcast,40,2013-02-28 00:36:00
7:56 PM,33.1,30.0,89,29.71,10.0,NE,5.8,-,N/A,,Light Drizzle,40,2013-02-28 00:56:00
8:16 PM,32.9,29.8,88,29.71,10.0,NNE,5.8,-,N/A,,Overcast,30,2013-02-28 01:16:00
8:36 PM,32.7,30.0,90,29.70,7.0,NNE,5.8,-,N/A,,Overcast,30,2013-02-28 01:36:00
9:16 PM,32.7,30.2,90,29.70,10.0,NNE,5.8,-,N/A,,Overcast,20,2013-02-28 02:16:00
9:36 PM,32.9,30.0,89,29.70,10.0,NNE,6.9,-,N/A,,Overcast,30,2013-02-28 02:36:00
9:56 PM,33.1,30.2,89,29.70,10.0,NNE,6.9,-,N/A,,Overcast,30,2013-02-28 02:56:00
10:16 PM,33.3,30.2,89,29.70,10.0,NNE,8.1,-,N/A,,Overcast,20,2013-02-28 03:16:00
10:36 PM,33.3,30.2,89,29.70,10.0,NNE,8.1,-,N/A,,Overcast,20,2013-02-28 03:36:00
10:57 PM,33.4,30.2,88,29.70,10.0,NNE,6.9,-,N/A,,Overcast,20,2013-02-28 03:57:00
11:16 PM,33.4,30.0,87,29.70,10.0,NNE,6.9,-,N/A,,Overcast,20,2013-02-28 04:16:00
11:36 PM,33.4,30.4,89,29.69,10.0,NNE,5.8,-,N/A,Rain,Light Rain,30,2013-02-28 04:36:00
11:56 PM,33.4,30.2,88,29.69,10.0,North,6.9,-,N/A,,Overcast,10,2013-02-28 04:56:00